Port Royal, Jamaica
Current Conditions -  °F | °C
As of 10:00 PM on Friday 24 Oct 2014 (Local Time) from MKJP Reporting Station
Thunderstorm Thunderstorm  
Wind Chill: 82°   Ceiling: Unl
Heat Index: 89°   Visibility: 6mi
Dew Point: 75°   Wind: 8mph
Humidity: 79%   Direction: 120°ESE
Pressure: 29.85"   Gusts: NA
Location:  17.93°N, 76.84°W
Report Text: MKJP 250300Z 12007KT 9999 VCTS FEW020 FEW022CB 28/24 Q1011
Loading
Personal Weather Stations






























Interactive Weather Map
Tropical Storm Tracking
New forecast layout! Learn more

10-Day Weather Forecast

Advertisements
Track Severe Weather on mobile